Flight Number: AVA3159 Duration: 3:00
Departure: La Aurora airport (MGGT) at 09:15 Distance: 1136.8 Nm
Arrival: Bogota Eldorado (SKBO) at 12:15 Equipment: A321

Weather Information
Guatemala Aeropuertola Aurora , Guatemala (MGGT) 14-35N 090-31W 1489M Feb 25, 2021 - 07:00 PM EST / 2021.02.26 0000 UTC
Wind: from the NNE (020 degrees) at 25 MPH (22 KT):0
Visibility: greater than 7 mile(s):0
Sky conditions: partly cloudy Temperature: 68 F (20 C) Dew Point: 55 F (13 C) Relative Humidity: 64% Pressure (altimeter): 30.24 in. Hg (1024 hPa)
ob: MGGT 260000Z 02022KT 9999 SCT020 20/13 Q1024 A3024 cycle: 0
Sunrise: 12:22 Sunset: 00:07 (UTC)

Bogota / Eldorado, Colombia (SKBO) 04-43N 074-09W 2548M Feb 25, 2021 - 07:00 PM EST / 2021.02.26 0000 UTC
Wind: from the E (090 degrees) at 6 MPH (5 KT):0
Visibility: greater than 7 mile(s):0
Sky conditions: mostly cloudy Temperature: 59 F (15 C) Dew Point: 50 F (10 C) Relative Humidity: 72% Pressure (altimeter): 30.24 in. Hg (1024 hPa)
ob: SKBO 260000Z 09005KT 9999 SCT023 BKN200 15/10 Q1024 NOSIG RMK A3025 cycle: 0
Sunrise: 11:10 Sunset: 23:07 (UTC)

TAF:2021/02/25 06:42 TAF SKBO 250430Z 2506/2606 05005KT 9999 SCT018 SCT090 TEMPO 2508/2512 5000 BCFG -DZ SCT012 BECMG 2516/2518 13010KT TEMPO 2519/2522 7000 -RA SCT017TCU TX20/2518Z TN09/2510Z

This route has never been flown.

Route map